createdAt,value
2022-08-14T00:00:11.268Z,2.05
2022-08-14T00:02:44.212Z,2.45
2022-08-14T00:05:16.222Z,2.38
2022-08-14T00:07:46.322Z,2.47
2022-08-14T00:10:51.756Z,2.40
2022-08-14T00:13:08.212Z,5.50
2022-08-14T00:15:48.184Z,3.47
2022-08-14T00:18:30.516Z,2.90
2022-08-14T00:21:11.167Z,2.58
2022-08-14T00:23:40.793Z,2.20
2022-08-14T00:26:22.973Z,2.40
2022-08-14T00:28:54.865Z,2.50
2022-08-14T00:31:30.854Z,2.60
2022-08-14T00:34:37.870Z,2.42
2022-08-14T00:37:02.097Z,2.50
2022-08-14T00:39:31.810Z,2.20
2022-08-14T00:42:01.215Z,2.28
2022-08-14T00:44:33.494Z,2.47
2022-08-14T00:47:03.691Z,2.45
2022-08-14T00:49:42.583Z,2.20
2022-08-14T00:52:14.004Z,2.90
2022-08-14T00:54:43.840Z,2.22
2022-08-14T00:57:14.781Z,2.30
2022-08-14T00:59:45.617Z,2.38
2022-08-14T01:02:19.990Z,2.28
2022-08-14T01:04:54.520Z,2.30
2022-08-14T01:07:27.349Z,2.20
2022-08-14T01:10:01.612Z,2.60
2022-08-14T01:12:31.601Z,2.40
2022-08-14T01:15:05.590Z,2.28
2022-08-14T01:17:56.375Z,2.40
2022-08-14T01:20:43.514Z,1.92
2022-08-14T01:23:18.886Z,2.17
2022-08-14T01:25:51.100Z,2.25
2022-08-14T01:28:46.769Z,2.65
2022-08-14T01:31:14.359Z,2.17
2022-08-14T01:33:59.954Z,2.88
2022-08-14T01:36:39.302Z,2.50
2022-08-14T01:39:13.582Z,2.25
2022-08-14T01:41:46.726Z,2.28
2022-08-14T01:44:32.089Z,2.30
2022-08-14T01:47:11.832Z,2.38
2022-08-14T01:49:59.067Z,2.00
2022-08-14T01:52:58.779Z,1.85
2022-08-14T01:55:30.630Z,2.17
2022-08-14T01:58:18.929Z,2.10
2022-08-14T02:00:55.146Z,2.22
2022-08-14T02:03:29.786Z,2.28
2022-08-14T02:06:04.078Z,2.20
2022-08-14T02:08:53.282Z,2.13
2022-08-14T02:11:26.887Z,2.17
2022-08-14T02:14:07.575Z,2.00
2022-08-14T02:16:39.612Z,2.20
2022-08-14T02:19:13.534Z,2.20
2022-08-14T02:21:48.833Z,1.83
2022-08-14T02:24:39.068Z,2.30
2022-08-14T02:28:22.183Z,1.90
2022-08-14T02:30:02.404Z,2.30
2022-08-14T02:32:36.338Z,1.90
2022-08-14T02:35:10.348Z,2.08
2022-08-14T02:37:47.810Z,2.33
2022-08-14T02:40:18.551Z,2.45
2022-08-14T02:42:55.156Z,2.10
2022-08-14T02:45:33.416Z,2.70
2022-08-14T02:48:10.357Z,2.40
2022-08-14T02:50:57.721Z,3.03
2022-08-14T02:53:31.324Z,2.67
2022-08-14T02:56:02.468Z,2.25
2022-08-14T02:58:37.434Z,2.55
2022-08-14T03:01:12.446Z,2.30
2022-08-14T03:03:41.801Z,2.40
2022-08-14T03:06:13.533Z,2.10
2022-08-14T03:08:49.800Z,2.20
2022-08-14T03:11:19.714Z,2.28
2022-08-14T03:13:52.625Z,2.15
2022-08-14T03:16:26.886Z,2.20
2022-08-14T03:19:00.239Z,2.30
2022-08-14T03:21:31.371Z,2.38
2022-08-14T03:24:21.615Z,2.00
2022-08-14T03:26:57.572Z,2.08
2022-08-14T03:29:29.481Z,2.47
2022-08-14T03:31:59.406Z,2.13
2022-08-14T03:34:48.127Z,2.40
2022-08-14T03:37:51.226Z,2.40
2022-08-14T03:40:11.248Z,2.25
2022-08-14T03:42:40.737Z,2.42
2022-08-14T03:45:20.069Z,2.58
2022-08-14T03:48:02.148Z,2.40
2022-08-14T03:50:34.042Z,2.08
2022-08-14T03:53:03.611Z,2.55
2022-08-14T03:55:32.797Z,2.20
2022-08-14T03:58:01.831Z,2.28
2022-08-14T04:00:43.288Z,2.47
2022-08-14T04:03:23.629Z,2.25
2022-08-14T04:05:53.857Z,1.83
2022-08-14T04:08:31.024Z,2.33
2022-08-14T04:11:02.781Z,2.47
2022-08-14T04:13:39.687Z,2.60
2022-08-14T04:16:14.793Z,2.40
2022-08-14T04:18:46.169Z,2.33
2022-08-14T04:21:17.824Z,2.13
2022-08-14T04:23:56.903Z,1.88
2022-08-14T04:26:42.352Z,2.25
2022-08-14T04:29:15.019Z,2.30
2022-08-14T04:33:02.840Z,2.10
2022-08-14T04:34:36.404Z,2.30
2022-08-14T04:37:38.938Z,2.05
2022-08-14T04:40:28.223Z,2.05
2022-08-14T04:43:17.398Z,2.10
2022-08-14T04:45:51.169Z,2.30
2022-08-14T04:48:39.064Z,1.85
2022-08-14T04:51:14.028Z,2.08
2022-08-14T04:53:44.937Z,1.80
2022-08-14T04:56:34.028Z,1.77
2022-08-14T04:59:10.053Z,1.73
2022-08-14T05:01:47.720Z,3.15
2022-08-14T05:04:21.286Z,2.13
2022-08-14T05:06:53.482Z,2.42
2022-08-14T05:09:24.601Z,2.40
2022-08-14T05:13:14.049Z,2.85
2022-08-14T05:14:55.302Z,2.28
2022-08-14T05:17:31.896Z,1.90
2022-08-14T05:21:04.474Z,2.05
2022-08-14T05:23:04.447Z,2.20
2022-08-14T05:25:34.364Z,1.85
2022-08-14T05:28:12.421Z,2.00
2022-08-14T05:30:46.258Z,1.92
2022-08-14T05:33:16.196Z,1.88
2022-08-14T05:35:47.875Z,2.17
2022-08-14T05:38:22.282Z,1.90
2022-08-14T05:41:02.507Z,1.80
2022-08-14T05:43:41.301Z,1.90
2022-08-14T05:46:15.273Z,1.40
2022-08-14T05:48:45.325Z,1.63
2022-08-14T05:51:16.397Z,2.28
2022-08-14T05:54:01.694Z,1.50
2022-08-14T05:56:36.954Z,1.95
2022-08-14T05:59:07.204Z,1.48
2022-08-14T06:01:36.848Z,1.77
2022-08-14T06:04:06.409Z,1.40
2022-08-14T06:06:38.501Z,1.48
2022-08-14T06:09:09.857Z,1.60
2022-08-14T06:11:39.547Z,1.50
2022-08-14T06:14:20.827Z,1.20
2022-08-14T06:16:52.976Z,1.30
2022-08-14T06:19:23.431Z,1.48
2022-08-14T06:21:59.108Z,1.33
2022-08-14T06:24:30.641Z,1.08
2022-08-14T06:27:05.888Z,1.45
2022-08-14T06:29:36.268Z,1.30
2022-08-14T06:32:37.763Z,1.20
2022-08-14T06:35:02.592Z,1.20
2022-08-14T06:37:43.614Z,1.30
2022-08-14T06:40:16.788Z,1.30
2022-08-14T06:42:55.939Z,1.13
2022-08-14T06:45:26.484Z,1.30
2022-08-14T06:47:58.797Z,1.17
2022-08-14T06:50:30.238Z,1.23
2022-08-14T06:53:01.053Z,1.95
2022-08-14T06:55:30.372Z,1.58
2022-08-14T06:57:59.798Z,1.23
2022-08-14T07:00:32.626Z,1.23
2022-08-14T07:03:21.729Z,1.33
2022-08-14T07:05:55.967Z,1.08
2022-08-14T07:08:31.523Z,1.40
2022-08-14T07:11:04.257Z,1.10
2022-08-14T07:13:33.600Z,1.55
2022-08-14T07:16:05.516Z,1.23
2022-08-14T07:18:37.253Z,1.55
2022-08-14T07:21:10.592Z,1.40
2022-08-14T07:23:44.150Z,1.15
2022-08-14T07:26:13.977Z,1.23
2022-08-14T07:28:44.143Z,1.25
2022-08-14T07:31:13.886Z,1.27
2022-08-14T07:33:50.391Z,1.40
2022-08-14T07:36:27.563Z,1.25
2022-08-14T07:39:03.000Z,1.50
2022-08-14T07:41:35.618Z,1.63
2022-08-14T07:44:32.437Z,1.60
2022-08-14T07:46:54.595Z,1.20
2022-08-14T07:49:24.742Z,1.38
2022-08-14T07:51:53.934Z,1.45
2022-08-14T07:54:29.831Z,1.50
2022-08-14T07:57:12.121Z,1.20
2022-08-14T07:59:44.640Z,1.30
2022-08-14T08:02:20.422Z,1.40
2022-08-14T08:04:55.142Z,1.35
2022-08-14T08:07:30.030Z,1.55
2022-08-14T08:10:46.292Z,1.40
2022-08-14T08:13:15.906Z,1.50
2022-08-14T08:15:47.994Z,1.50
2022-08-14T08:18:20.466Z,1.40
2022-08-14T08:20:59.225Z,1.20
2022-08-14T08:23:40.090Z,1.27
2022-08-14T08:26:11.569Z,1.40
2022-08-14T08:28:43.959Z,1.52
2022-08-14T08:31:13.717Z,1.30
2022-08-14T08:33:44.870Z,1.40
2022-08-14T08:36:19.268Z,1.30
2022-08-14T08:39:17.001Z,1.30
2022-08-14T08:41:50.482Z,1.60
2022-08-14T08:44:34.467Z,1.92
2022-08-14T08:47:07.635Z,1.60
2022-08-14T08:49:43.344Z,1.40
2022-08-14T08:52:24.901Z,2.10
2022-08-14T08:54:58.044Z,1.60
2022-08-14T08:57:35.773Z,1.50
2022-08-14T09:00:25.127Z,1.90
2022-08-14T09:03:00.283Z,1.80
2022-08-14T09:05:30.007Z,1.23
2022-08-14T09:08:30.700Z,2.03
2022-08-14T09:11:19.380Z,1.77
2022-08-14T09:13:53.827Z,2.05
2022-08-14T09:16:25.349Z,1.85
2022-08-14T09:18:55.988Z,1.55
2022-08-14T09:21:30.936Z,2.17
2022-08-14T09:24:29.566Z,1.85
2022-08-14T09:26:50.771Z,1.75
2022-08-14T09:29:23.393Z,1.55
2022-08-14T09:31:57.545Z,1.73
2022-08-14T09:34:58.325Z,1.73
2022-08-14T09:37:39.191Z,1.90
2022-08-14T09:40:21.299Z,2.08
2022-08-14T09:43:01.385Z,2.00
2022-08-14T09:45:39.818Z,1.67
2022-08-14T09:48:29.865Z,2.05
2022-08-14T09:54:19.662Z,1.95
2022-08-14T09:56:30.852Z,1.83
2022-08-14T09:59:14.947Z,1.90
2022-08-14T10:01:53.245Z,2.17
2022-08-14T10:04:34.233Z,1.83
2022-08-14T10:07:05.101Z,1.90
2022-08-14T10:09:35.289Z,2.22
2022-08-14T10:12:06.803Z,2.13
2022-08-14T10:14:53.327Z,2.30
2022-08-14T10:17:32.948Z,2.63
2022-08-14T10:20:40.758Z,2.25
2022-08-14T10:23:22.316Z,2.15
2022-08-14T10:25:54.338Z,2.00
2022-08-14T10:28:39.033Z,2.45
2022-08-14T10:31:25.600Z,2.20
2022-08-14T10:34:02.834Z,2.10
2022-08-14T10:36:37.001Z,2.17
2022-08-14T10:39:17.262Z,2.35
2022-08-14T10:41:53.811Z,2.17
2022-08-14T10:44:29.708Z,1.85
2022-08-14T10:47:39.846Z,1.90
2022-08-14T10:50:00.652Z,1.83
2022-08-14T10:52:33.780Z,2.15
2022-08-14T10:55:13.935Z,2.15
2022-08-14T10:57:51.492Z,2.05
2022-08-14T11:00:29.446Z,2.08
2022-08-14T11:03:09.510Z,2.25
2022-08-14T11:05:45.391Z,2.50
2022-08-14T11:08:17.289Z,2.20
2022-08-14T11:10:49.102Z,2.10
2022-08-14T11:13:24.021Z,2.40
2022-08-14T11:15:56.131Z,2.33
2022-08-14T11:18:30.124Z,2.17
2022-08-14T11:21:03.006Z,2.45
2022-08-14T11:23:39.810Z,2.10
2022-08-14T11:26:11.391Z,2.05
2022-08-14T11:28:46.906Z,2.20
2022-08-14T11:31:23.538Z,2.35
2022-08-14T11:33:57.858Z,2.70
2022-08-14T11:36:35.036Z,2.50
2022-08-14T11:39:34.336Z,2.70
2022-08-14T11:42:07.736Z,2.58
2022-08-14T11:45:00.278Z,2.42
2022-08-14T11:47:35.074Z,2.38
2022-08-14T11:50:24.961Z,2.65
2022-08-14T11:53:04.797Z,2.38
2022-08-14T11:55:38.036Z,2.58
2022-08-14T11:58:23.721Z,2.65
2022-08-14T12:00:57.157Z,2.50
2022-08-14T12:03:51.264Z,2.22
2022-08-14T12:06:29.761Z,2.35
2022-08-14T12:09:15.281Z,2.30
2022-08-14T12:11:47.486Z,2.65
2022-08-14T12:14:29.881Z,2.58
2022-08-14T12:17:12.165Z,2.63
2022-08-14T12:19:50.927Z,2.60
2022-08-14T12:22:35.287Z,2.45
2022-08-14T12:25:10.921Z,2.60
2022-08-14T12:27:53.210Z,2.47
2022-08-14T12:30:42.589Z,2.70
2022-08-14T12:33:25.712Z,2.60
2022-08-14T12:36:05.816Z,2.50
2022-08-14T12:38:43.604Z,2.78
2022-08-14T12:41:21.027Z,2.70
2022-08-14T12:43:55.579Z,2.70
2022-08-14T12:46:28.465Z,2.78
2022-08-14T12:49:00.187Z,2.42
2022-08-14T12:51:31.712Z,2.60
2022-08-14T12:54:19.422Z,2.75
2022-08-14T12:57:07.952Z,2.45
2022-08-14T12:59:43.070Z,3.17
2022-08-14T13:02:25.269Z,2.40
2022-08-14T13:04:57.717Z,2.35
2022-08-14T13:07:32.418Z,2.85
2022-08-14T13:10:03.031Z,2.67
2022-08-14T13:13:13.142Z,2.60
2022-08-14T13:15:46.270Z,2.28
2022-08-14T13:18:17.809Z,2.40
2022-08-14T13:20:49.399Z,2.17
2022-08-14T13:23:31.584Z,1.90
2022-08-14T13:26:02.879Z,2.05
2022-08-14T13:28:41.342Z,2.05
2022-08-14T13:31:29.855Z,1.85
2022-08-14T13:34:00.143Z,2.17
2022-08-14T13:36:51.425Z,2.00
2022-08-14T13:39:21.090Z,1.67
2022-08-14T13:41:55.930Z,2.45
2022-08-14T13:44:28.888Z,2.17
2022-08-14T13:46:58.586Z,2.30
2022-08-14T13:49:29.165Z,2.28
2022-08-14T13:52:04.217Z,2.00
2022-08-14T13:54:37.469Z,2.20
2022-08-14T13:57:12.491Z,2.30
2022-08-14T13:59:46.597Z,2.10
2022-08-14T14:02:33.643Z,2.20
2022-08-14T14:05:05.752Z,2.00
2022-08-14T14:07:39.325Z,2.00
2022-08-14T14:10:13.576Z,2.20
2022-08-14T14:12:45.993Z,2.28
2022-08-14T14:15:33.927Z,2.25
2022-08-14T14:18:34.549Z,2.28
2022-08-14T14:21:06.563Z,2.40
2022-08-14T14:23:39.638Z,2.42
2022-08-14T14:26:13.789Z,2.08
2022-08-14T14:28:44.830Z,2.10
2022-08-14T14:31:16.270Z,2.00
2022-08-14T14:33:49.138Z,2.00
2022-08-14T14:36:21.762Z,2.28
2022-08-14T14:38:55.976Z,2.47
2022-08-14T14:41:26.678Z,2.17
2022-08-14T14:44:09.214Z,2.42
2022-08-14T14:46:43.424Z,2.20
2022-08-14T14:49:14.431Z,2.10
2022-08-14T14:51:46.903Z,1.92
2022-08-14T14:54:31.820Z,1.80
2022-08-14T14:57:09.177Z,2.20
2022-08-14T14:59:39.207Z,1.90
2022-08-14T15:02:11.888Z,2.10
2022-08-14T15:04:44.034Z,2.80
2022-08-14T15:07:16.295Z,1.90
2022-08-14T15:09:45.625Z,2.20
2022-08-14T15:12:56.502Z,2.05
2022-08-14T15:15:09.079Z,2.30
2022-08-14T15:17:41.217Z,1.75
2022-08-14T15:20:17.526Z,2.05
2022-08-14T15:23:08.219Z,1.83
2022-08-14T15:25:41.776Z,1.75
2022-08-14T15:28:12.707Z,2.03
2022-08-14T15:30:43.530Z,1.88
2022-08-14T15:33:14.418Z,1.70
2022-08-14T15:35:46.394Z,2.13
2022-08-14T15:38:17.778Z,1.60
2022-08-14T15:40:51.237Z,1.67
2022-08-14T15:43:27.340Z,1.90
2022-08-14T15:46:00.887Z,1.55
2022-08-14T15:48:31.951Z,1.70
2022-08-14T15:51:01.546Z,1.90
2022-08-14T15:53:31.637Z,1.50
2022-08-14T15:56:01.988Z,1.73
2022-08-14T15:58:31.424Z,1.65
2022-08-14T16:01:37.104Z,1.92
2022-08-14T16:04:11.959Z,1.45
2022-08-14T16:06:46.590Z,1.80
2022-08-14T16:09:24.127Z,1.80
2022-08-14T16:11:53.970Z,1.70
2022-08-14T16:14:24.253Z,1.85
2022-08-14T16:17:00.455Z,1.63
2022-08-14T16:19:32.403Z,1.70
2022-08-14T16:22:58.667Z,1.60
2022-08-14T16:25:05.111Z,1.52
2022-08-14T16:27:40.879Z,1.25
2022-08-14T16:30:25.349Z,1.55
2022-08-14T16:32:59.161Z,2.00
2022-08-14T16:35:43.140Z,1.90
2022-08-14T16:38:45.715Z,1.60
2022-08-14T16:41:18.062Z,1.70
2022-08-14T16:43:53.929Z,1.77
2022-08-14T16:46:32.689Z,1.50
2022-08-14T16:49:02.559Z,1.70
2022-08-14T16:51:36.432Z,1.70
2022-08-14T16:54:20.819Z,1.67
2022-08-14T16:57:15.932Z,2.00
2022-08-14T16:59:57.414Z,1.80
2022-08-14T17:02:37.008Z,2.40
2022-08-14T17:05:18.934Z,1.73
2022-08-14T17:08:32.653Z,2.05
2022-08-14T17:11:04.626Z,1.92
2022-08-14T17:13:59.934Z,2.22
2022-08-14T17:16:33.061Z,1.42
2022-08-14T17:19:09.813Z,2.00
2022-08-14T17:21:47.266Z,2.20
2022-08-14T17:24:56.282Z,1.80
2022-08-14T17:27:09.106Z,2.28
2022-08-14T17:29:44.839Z,1.90
2022-08-14T17:32:44.076Z,1.95
2022-08-14T17:35:16.629Z,2.10
2022-08-14T17:37:55.768Z,2.30
2022-08-14T17:40:31.843Z,1.88
2022-08-14T17:43:02.486Z,2.00
2022-08-14T17:45:46.774Z,1.88
2022-08-14T17:49:16.014Z,2.35
2022-08-14T17:51:22.049Z,1.83
2022-08-14T17:54:02.412Z,2.13
2022-08-14T17:56:36.190Z,2.08
2022-08-14T17:59:08.667Z,2.10
2022-08-14T18:01:45.713Z,2.17
2022-08-14T18:04:25.099Z,2.00
2022-08-14T18:07:16.469Z,1.98
2022-08-14T18:09:59.045Z,2.28
2022-08-14T18:12:32.895Z,2.80
2022-08-14T18:15:14.546Z,2.60
2022-08-14T18:17:53.400Z,2.75
2022-08-14T18:21:39.879Z,2.28
2022-08-14T18:23:14.917Z,2.05
2022-08-14T18:25:49.732Z,2.25
2022-08-14T18:28:50.955Z,2.10
2022-08-14T18:31:43.446Z,2.00
2022-08-14T18:34:32.102Z,2.10
2022-08-14T18:37:17.346Z,2.03
2022-08-14T18:40:01.957Z,1.92
2022-08-14T18:42:57.200Z,2.35
2022-08-14T18:45:34.311Z,2.22
2022-08-14T18:48:33.305Z,1.83
2022-08-14T18:51:45.143Z,1.85
2022-08-14T18:54:32.754Z,1.88
2022-08-14T18:57:05.235Z,1.80
2022-08-14T18:59:40.194Z,2.25
2022-08-14T19:02:44.413Z,2.00
2022-08-14T19:05:15.021Z,2.15
2022-08-14T19:07:48.159Z,2.00
2022-08-14T19:10:37.566Z,2.30
2022-08-14T19:13:12.068Z,2.10
2022-08-14T19:15:44.748Z,1.85
2022-08-14T19:18:29.267Z,1.77
2022-08-14T19:21:00.597Z,1.75
2022-08-14T19:23:43.940Z,1.80
2022-08-14T19:26:35.664Z,1.77
2022-08-14T19:29:36.176Z,2.28
2022-08-14T19:32:22.692Z,1.85
2022-08-14T19:34:53.996Z,2.08
2022-08-14T19:37:52.333Z,1.80
2022-08-14T19:40:35.248Z,1.90
2022-08-14T19:43:06.667Z,2.10
2022-08-14T19:45:39.733Z,1.70
2022-08-14T19:48:16.107Z,1.80
2022-08-14T19:50:47.182Z,1.80
2022-08-14T19:53:18.397Z,1.92
2022-08-14T19:56:01.865Z,2.22
2022-08-14T19:58:55.441Z,2.08
2022-08-14T20:01:37.697Z,1.85
2022-08-14T20:04:46.327Z,2.10
2022-08-14T20:07:02.168Z,1.63
2022-08-14T20:11:07.974Z,1.90
2022-08-14T20:12:36.677Z,1.80
2022-08-14T20:15:46.746Z,1.60
2022-08-14T20:18:49.585Z,1.80
2022-08-14T20:21:14.933Z,1.95
2022-08-14T20:23:48.094Z,1.70
2022-08-14T20:26:30.442Z,2.20
2022-08-14T20:29:05.213Z,1.50
2022-08-14T20:31:38.585Z,1.85
2022-08-14T20:34:24.809Z,2.00
2022-08-14T20:37:09.541Z,2.08
2022-08-14T20:39:45.025Z,1.83
2022-08-14T20:42:49.351Z,1.92
2022-08-14T20:45:24.212Z,2.20
2022-08-14T20:48:01.194Z,1.70
2022-08-14T20:50:31.835Z,2.05
2022-08-14T20:53:05.849Z,1.70
2022-08-14T20:55:41.661Z,2.00
2022-08-14T20:58:38.720Z,1.30
2022-08-14T21:01:35.751Z,2.15
2022-08-14T21:04:22.265Z,1.70
2022-08-14T21:07:33.485Z,2.05
2022-08-14T21:10:06.282Z,1.80
2022-08-14T21:12:35.700Z,2.00
2022-08-14T21:15:11.118Z,1.75
2022-08-14T21:17:43.260Z,1.67
2022-08-14T21:20:25.342Z,1.73
2022-08-14T21:23:00.546Z,1.55
2022-08-14T21:25:31.826Z,2.17
2022-08-14T21:28:04.921Z,1.75
2022-08-14T21:30:51.304Z,1.95
2022-08-14T21:33:24.004Z,2.00
2022-08-14T21:35:54.985Z,1.60
2022-08-14T21:38:31.318Z,1.70
2022-08-14T21:41:42.371Z,2.33
2022-08-14T21:44:05.245Z,2.30
2022-08-14T21:46:49.972Z,1.88
2022-08-14T21:49:23.744Z,2.17
2022-08-14T21:51:59.958Z,1.90
2022-08-14T21:54:49.490Z,1.48
2022-08-14T21:57:55.751Z,1.80
2022-08-14T22:00:35.584Z,2.28
2022-08-14T22:03:08.986Z,1.83
2022-08-14T22:05:41.974Z,1.67
2022-08-14T22:08:14.068Z,1.80
2022-08-14T22:10:46.534Z,1.98
2022-08-14T22:13:17.531Z,1.80
2022-08-14T22:15:49.460Z,1.90
2022-08-14T22:18:21.186Z,1.70
2022-08-14T22:20:56.543Z,1.92
2022-08-14T22:23:27.092Z,2.25
2022-08-14T22:25:56.816Z,1.77
2022-08-14T22:28:32.669Z,1.95
2022-08-14T22:31:10.496Z,2.15
2022-08-14T22:33:43.035Z,1.83
2022-08-14T22:36:34.259Z,1.90
2022-08-14T22:39:11.556Z,1.90
2022-08-14T22:41:42.469Z,1.70
2022-08-14T22:44:16.201Z,1.90
2022-08-14T22:46:45.564Z,2.10
2022-08-14T22:49:15.806Z,1.70
2022-08-14T22:52:33.158Z,1.98
2022-08-14T22:54:59.038Z,1.67
2022-08-14T22:57:37.879Z,1.80
2022-08-14T23:00:16.203Z,1.90
2022-08-14T23:02:47.101Z,1.63
2022-08-14T23:05:39.183Z,1.90
2022-08-14T23:08:56.207Z,1.80
2022-08-14T23:11:01.865Z,1.98
2022-08-14T23:13:33.253Z,1.95
2022-08-14T23:16:02.682Z,1.90
2022-08-14T23:18:32.453Z,2.05
2022-08-14T23:21:02.068Z,1.98
2022-08-14T23:23:32.417Z,2.13
2022-08-14T23:26:48.442Z,2.15
2022-08-14T23:28:58.661Z,2.08
2022-08-14T23:31:35.752Z,2.10
2022-08-14T23:34:07.608Z,2.30
2022-08-14T23:36:53.076Z,1.90
2022-08-14T23:39:29.405Z,1.70
2022-08-14T23:42:02.536Z,1.77
2022-08-14T23:44:36.799Z,2.03
2022-08-14T23:47:11.766Z,1.95
2022-08-14T23:50:00.587Z,2.15
2022-08-14T23:53:06.218Z,2.20
2022-08-14T23:55:27.893Z,2.08
2022-08-14T23:58:00.464Z,1.88
